Newport Municipal Airport Newport US
ICAO: KONP
IATA: ONP
Category: Medium
Scheduled Services: No

Elevation: 160 ft
TransAlt. 18000 ft.

Airport Communications:
AWOS 3:133.9
SEATTLE CNTR:125.8
CTAF/UNICOM:122.8

KONP Zoom In..

If you have problems with the map follow the link
https://www.worldairports.se/pages/airport.php?
ICAO=KONP

Runways:

(A) RW 02 length 3001 ft width 75 ft
---- / hdg 18

(B) RW 16 length 5398 ft width 150 ft
ILS 111.50 / hdg 158

(C) RW 20 length 3001 ft width 75 ft
---- / hdg 198

(D) RW 34 length 5398 ft width 150 ft
---- / hdg 338

Location; KONP
Day. 19 / Time. 18.15 Zulu
* Altimeter: 30.19
* Temperature: 12° c. 53.6°f.
* Wind from: 090° Speed 08 kn.
Dewpoint: 11° c.
Visibility: 10 Statute Miles.
Clouds: Clear (automated report).

KONP 191815Z AUTO 09008KT 10SM CLR 12/11 A3019 RMK AO2


Wind From 090°
Speed 08 kn.

 
 
jpsmedia worldairports.se 2020   terms of use